Time;durP1;ratioP1;P1;durP2;ratioP2;P2;SDS_P1;SDS_P2;PMS_P1;PMS_P2;Temp;Humidity;BMP_temperature;BMP_pressure;BME280_temperature;BME280_humidity;BME280_pressure;Samples;Min_cycle;Max_cycle;Signal;HPM_P1;HPM_P2
2021/03/15 00:01:58;;;;;;;27.05;7.80;;;;;;;12.29;81.48;100649.84;5014810;28;20476;-93
2021/03/15 00:04:23;;;;;;;28.20;8.65;;;;;;;11.99;83.13;100650.25;5015373;28;20141;-92
2021/03/15 00:06:48;;;;;;;31.88;9.50;;;;;;;11.71;83.28;100668.75;5015356;28;20104;-92
2021/03/15 00:09:14;;;;;;;28.63;7.65;;;;;;;12.13;81.38;100660.63;5015073;28;20021;-92
2021/03/15 00:11:39;;;;;;;28.17;8.23;;;;;;;12.19;80.57;100662.84;5014523;28;20018;-93
2021/03/15 00:14:04;;;;;;;27.77;9.20;;;;;;;12.04;80.70;100653.38;5014392;28;20472;-92
2021/03/15 00:16:30;;;;;;;30.40;7.57;;;;;;;11.85;81.35;100662.53;5014003;28;20026;-92
2021/03/15 00:18:55;;;;;;;19.95;6.72;;;;;;;12.02;80.11;100660.53;5014467;28;20037;-93
2021/03/15 00:21:21;;;;;;;29.88;7.72;;;;;;;11.95;80.28;100661.91;5014252;28;20026;-92
2021/03/15 00:23:46;;;;;;;33.22;8.80;;;;;;;11.73;80.77;100673.03;5013697;28;20425;-92
2021/03/15 00:26:11;;;;;;;21.85;6.13;;;;;;;11.84;79.96;100663.47;5013015;28;20056;-92
2021/03/15 00:28:37;;;;;;;15.32;6.00;;;;;;;11.78;80.00;100674.41;5012797;28;20079;-93
2021/03/15 00:31:02;;;;;;;19.15;7.00;;;;;;;11.96;79.40;100671.50;5013123;28;20112;-93
2021/03/15 00:33:28;;;;;;;20.02;6.60;;;;;;;12.12;77.96;100672.09;5012862;28;20026;-93
2021/03/15 00:35:53;;;;;;;31.02;7.35;;;;;;;11.90;78.78;100663.06;5014229;28;20061;-94
2021/03/15 00:38:18;;;;;;;26.33;6.35;;;;;;;11.84;79.56;100668.72;5012411;28;20030;-94
2021/03/15 00:40:44;;;;;;;17.55;5.57;;;;;;;12.38;76.54;100667.66;5012799;28;20105;-93
2021/03/15 00:43:10;;;;;;;29.40;7.03;;;;;;;12.22;76.65;100664.41;5013066;28;20091;-92
2021/03/15 00:45:36;;;;;;;21.27;5.88;;;;;;;12.13;77.69;100684.31;5012645;28;20038;-93
2021/03/15 00:48:01;;;;;;;28.60;6.65;;;;;;;11.70;79.26;100679.38;5013780;28;20449;-92
2021/03/15 00:50:42;;;;;;;19.48;6.32;;;;;;;12.09;77.73;100682.84;5012322;28;20049;-92
2021/03/15 00:53:11;;;;;;;26.45;6.50;;;;;;;12.10;77.10;100671.38;5012067;28;20310;-92
2021/03/15 00:55:37;;;;;;;19.38;6.35;;;;;;;12.22;76.48;100674.94;5012323;28;20105;-92
2021/03/15 00:58:03;;;;;;;22.13;5.85;;;;;;;12.35;75.72;100682.81;5012627;28;20072;-92
2021/03/15 01:00:38;;;;;;;22.23;6.03;;;;;;;12.13;76.48;100679.06;5013152;28;20080;-91
2021/03/15 01:03:04;;;;;;;20.08;5.53;;;;;;;12.39;75.30;100681.66;5012215;28;20116;-92
2021/03/15 01:05:42;;;;;;;24.08;6.72;;;;;;;12.52;74.54;100679.81;5013560;28;20076;-93
2021/03/15 01:08:10;;;;;;;15.10;4.85;;;;;;;12.62;73.88;100683.47;5017429;28;20503;-95
2021/03/15 01:10:38;;;;;;;23.55;5.78;;;;;;;12.77;73.23;100692.03;5017375;28;20037;-93
2021/03/15 01:13:04;;;;;;;15.75;5.95;;;;;;;12.77;72.99;100672.75;5017094;28;20064;-94
2021/03/15 01:15:30;;;;;;;19.63;5.90;;;;;;;12.53;73.87;100676.22;5017608;28;20105;-94
2021/03/15 01:17:56;;;;;;;16.58;5.03;;;;;;;12.58;74.17;100691.69;5018185;28;20022;-94
2021/03/15 01:20:22;;;;;;;16.63;5.00;;;;;;;12.58;74.99;100691.69;5022236;28;20022;-93
2021/03/15 01:22:47;;;;;;;18.17;5.07;;;;;;;12.59;73.72;100691.59;5040612;28;20022;-93
2021/03/15 01:25:15;;;;;;;18.75;5.55;;;;;;;12.60;73.85;100695.91;5026232;28;20072;-93
2021/03/15 01:27:40;;;;;;;15.80;4.93;;;;;;;12.57;73.89;100682.94;5017697;28;20022;-93
2021/03/15 01:30:16;;;;;;;18.70;6.30;;;;;;;12.83;73.23;100699.50;5016092;28;20392;-93
2021/03/15 01:32:42;;;;;;;23.90;7.13;;;;;;;12.63;74.76;100695.69;5015682;28;20025;-93
2021/03/15 01:35:08;;;;;;;29.50;8.10;;;;;;;12.61;75.09;100700.22;5015961;28;20024;-94
2021/03/15 01:37:34;;;;;;;24.45;6.30;;;;;;;12.47;75.95;100701.19;5017051;28;20078;-94
2021/03/15 01:39:59;;;;;;;28.42;7.45;;;;;;;12.09;78.43;100703.91;5015699;28;20030;-94
2021/03/15 01:42:26;;;;;;;20.90;6.45;;;;;;;12.28;78.13;100698.19;5025793;28;20097;-94
2021/03/15 01:44:51;;;;;;;25.48;6.80;;;;;;;12.28;77.92;100699.06;5032871;28;20033;-93
2021/03/15 01:47:17;;;;;;;26.52;7.28;;;;;;;12.23;79.01;100687.16;5031779;28;20084;-92
2021/03/15 01:49:43;;;;;;;30.05;6.97;;;;;;;11.93;80.17;100690.97;5029365;28;20057;-93
2021/03/15 01:52:08;;;;;;;24.33;6.93;;;;;;;11.96;79.93;100703.91;5030768;28;20037;-93
2021/03/15 01:54:33;;;;;;;21.05;6.82;;;;;;;12.03;80.16;100699.09;5037164;28;20033;-92
2021/03/15 01:56:59;;;;;;;28.05;8.13;;;;;;;11.80;80.92;100685.66;5040163;28;20053;-93
2021/03/15 01:59:25;;;;;;;29.23;7.90;;;;;;;11.81;81.20;100692.63;5039951;28;20002;-93
2021/03/15 02:01:50;;;;;;;18.40;6.53;;;;;;;11.78;81.10;100684.94;5039983;28;20028;-93
2021/03/15 02:04:17;;;;;;;26.52;6.75;;;;;;;11.24;84.52;100692.97;5039644;28;20130;-93
2021/03/15 02:06:43;;;;;;;28.65;6.82;;;;;;;11.68;82.29;100689.16;5040031;28;20030;-92
2021/03/15 02:09:09;;;;;;;29.48;6.93;;;;;;;11.79;81.88;100691.03;5040644;28;20046;-93
2021/03/15 02:11:44;;;;;;;36.58;9.82;;;;;;;11.79;82.27;100694.53;5039894;28;20018;-92
2021/03/15 02:14:09;;;;;;;36.20;6.70;;;;;;;11.62;83.21;100694.81;5039486;28;20025;-92
2021/03/15 02:16:57;;;;;;;25.85;7.40;;;;;;;11.55;83.00;100691.75;5037482;28;20097;-92
2021/03/15 02:19:54;;;;;;;28.83;6.82;;;;;;;11.50;84.59;100696.50;5039658;28;20014;-91
2021/03/15 02:22:37;;;;;;;29.52;7.07;;;;;;;11.11;86.89;100700.81;5038424;28;20046;-91
2021/03/15 02:25:39;;;;;;;35.80;8.60;;;;;;;11.30;86.29;100695.19;5039612;28;20018;-93
2021/03/15 02:28:38;;;;;;;30.23;8.18;;;;;;;11.54;84.88;100686.63;5039781;28;20020;-93
2021/03/15 02:31:29;;;;;;;34.78;7.13;;;;;;;11.54;84.13;100681.38;5039602;28;20114;-92
2021/03/15 02:34:16;;;;;;;33.15;7.68;;;;;;;11.56;84.92;100682.09;5039067;28;20048;-94
2021/03/15 02:36:45;;;;;;;29.45;7.13;;;;;;;11.46;84.16;100676.63;5038798;28;20455;-91
2021/03/15 02:39:17;;;;;;;23.15;7.15;;;;;;;11.55;84.42;100675.13;5039080;28;20032;-91
2021/03/15 02:41:43;;;;;;;25.95;7.35;;;;;;;11.87;81.80;100678.22;5039175;28;20030;-93
2021/03/15 02:44:10;;;;;;;39.13;8.40;;;;;;;11.40;84.42;100679.66;5037350;28;20070;-93
2021/03/15 02:46:40;;;;;;;25.88;6.55;;;;;;;11.25;84.90;100660.47;5036749;28;20065;-92
2021/03/15 02:49:09;;;;;;;30.70;7.72;;;;;;;10.82;87.63;100674.66;5034687;28;20029;-93
2021/03/15 02:51:37;;;;;;;28.25;7.28;;;;;;;11.34;85.19;100670.38;5020514;28;20047;-93
2021/03/15 02:54:05;;;;;;;26.20;6.32;;;;;;;11.12;85.84;100665.72;5015047;28;20122;-92
2021/03/15 02:56:34;;;;;;;27.48;6.43;;;;;;;11.36;84.69;100681.66;5015422;28;20116;-94
2021/03/15 02:59:05;;;;;;;27.25;7.00;;;;;;;11.14;85.58;100679.59;5016238;28;20055;-92
2021/03/15 03:01:32;;;;;;;23.67;6.43;;;;;;;11.22;84.75;100676.47;5015136;28;20018;-93
2021/03/15 03:03:58;;;;;;;26.02;7.28;;;;;;;11.09;84.96;100665.91;5014734;28;20033;-93
2021/03/15 03:06:30;;;;;;;20.73;6.43;;;;;;;11.14;85.29;100684.88;5015177;28;20400;-93
2021/03/15 03:08:58;;;;;;;24.25;6.88;;;;;;;11.49;83.26;100690.41;5014455;28;20029;-94
2021/03/15 03:11:28;;;;;;;23.88;6.38;;;;;;;10.90;86.14;100696.03;5015703;28;20030;-92
2021/03/15 03:13:55;;;;;;;30.38;5.72;;;;;;;11.39;83.50;100685.84;5051079;23;20014;-89
2021/03/15 03:16:23;;;;;;;27.45;5.93;;;;;;;11.38;83.24;100690.28;5012913;28;20373;-88
2021/03/15 03:18:51;;;;;;;21.15;5.45;;;;;;;11.80;79.85;100690.94;5012624;28;20465;-88
2021/03/15 03:21:24;;;;;;;22.75;4.75;;;;;;;10.96;83.65;100700.03;5020354;28;20073;-88
2021/03/15 03:23:51;;;;;;;13.23;4.18;;;;;;;11.28;81.64;100697.94;5019762;28;20014;-87
2021/03/15 03:26:21;;;;;;;23.52;4.55;;;;;;;11.53;80.65;100706.78;5001844;28;20487;-87
2021/03/15 03:28:48;;;;;;;11.13;3.78;;;;;;;11.72;79.70;100711.66;4994994;28;20034;-90
2021/03/15 03:31:14;;;;;;;16.80;4.18;;;;;;;11.47;79.42;100713.34;5014964;28;20030;-91
2021/03/15 03:33:41;;;;;;;16.02;3.72;;;;;;;11.46;79.68;100722.16;4998825;28;20080;-91
2021/03/15 03:36:07;;;;;;;18.80;4.85;;;;;;;10.93;82.63;100728.28;5037962;28;20017;-89
2021/03/15 03:38:32;;;;;;;22.35;4.70;;;;;;;11.08;83.00;100737.81;5021016;28;20018;-88
2021/03/15 03:40:58;;;;;;;17.20;4.38;;;;;;;11.22;81.67;100740.38;5020568;28;20076;-89
2021/03/15 03:43:23;;;;;;;13.10;3.90;;;;;;;10.86;82.71;100740.97;5013310;28;20030;-87
2021/03/15 03:45:48;;;;;;;14.25;4.07;;;;;;;10.78;82.79;100741.47;5012658;28;20038;-88
2021/03/15 03:48:14;;;;;;;24.20;4.70;;;;;;;11.34;80.73;100748.44;4995112;28;20471;-87
2021/03/15 03:50:39;;;;;;;12.68;3.58;;;;;;;11.19;80.61;100747.63;4995055;28;20024;-88
2021/03/15 03:53:46;;;;;;;21.30;6.05;;;;;;;11.41;80.26;100745.25;4995021;28;20439;-91
2021/03/15 03:56:17;;;;;;;13.65;3.60;;;;;;;11.84;77.94;100741.56;4913782;29;20036;-88
2021/03/15 03:58:51;;;;;;;15.23;3.88;;;;;;;11.38;78.74;100748.13;4897923;29;20060;-91
2021/03/15 04:01:23;;;;;;;15.77;3.17;;;;;;;11.39;79.05;100747.16;4951920;28;20376;-90
2021/03/15 04:03:53;;;;;;;14.18;3.08;;;;;;;11.63;77.62;100755.22;5012313;28;20026;-88
2021/03/15 04:06:20;;;;;;;10.75;3.03;;;;;;;11.72;76.49;100751.13;4994973;28;20026;-90
2021/03/15 04:08:55;;;;;;;11.20;2.75;;;;;;;11.83;75.40;100742.53;4994630;28;20022;-90
2021/03/15 04:11:23;;;;;;;9.52;2.47;;;;;;;11.79;75.45;100747.16;4994707;28;20510;-88
2021/03/15 04:13:50;;;;;;;9.05;3.03;;;;;;;11.48;76.50;100759.69;4994950;28;20033;-90
2021/03/15 04:16:19;;;;;;;13.38;2.35;;;;;;;11.32;76.63;100753.78;4994498;28;20391;-88
2021/03/15 04:18:50;;;;;;;12.48;2.45;;;;;;;11.39;75.22;100757.66;5011971;28;20484;-88
2021/03/15 04:21:22;;;;;;;8.35;2.08;;;;;;;11.02;76.30;100743.44;5012069;28;20034;-90
2021/03/15 04:23:48;;;;;;;5.60;1.55;;;;;;;10.97;76.54;100753.44;5011996;28;20030;-87
2021/03/15 04:26:14;;;;;;;7.97;1.65;;;;;;;11.14;75.49;100747.94;4994413;28;20053;-90
2021/03/15 04:28:41;;;;;;;7.90;1.95;;;;;;;10.86;75.85;100754.09;4994500;28;20503;-91
2021/03/15 04:31:08;;;;;;;5.45;1.42;;;;;;;11.00;75.65;100756.72;4994343;28;20038;-87
2021/03/15 04:33:36;;;;;;;7.93;1.73;;;;;;;11.26;74.11;100764.69;4994327;28;20033;-90
2021/03/15 04:36:02;;;;;;;9.68;1.98;;;;;;;11.10;75.26;100757.78;4994418;28;20168;-88
2021/03/15 04:38:27;;;;;;;7.97;1.73;;;;;;;11.24;74.37;100777.09;4994602;28;20109;-90
2021/03/15 04:40:54;;;;;;;7.68;2.25;;;;;;;11.02;76.64;100778.47;4994252;28;20472;-89
2021/03/15 04:43:20;;;;;;;9.98;2.40;;;;;;;11.06;75.55;100771.25;4994448;28;20025;-90
2021/03/15 04:45:49;;;;;;;6.75;2.35;;;;;;;11.21;75.29;100774.66;4994062;28;20073;-89
2021/03/15 04:48:20;;;;;;;7.05;1.88;;;;;;;10.84;76.81;100784.88;5011677;28;20034;-90
2021/03/15 04:50:49;;;;;;;8.18;1.90;;;;;;;10.62;77.84;100780.13;5012143;28;20021;-91
2021/03/15 04:53:15;;;;;;;12.82;3.22;;;;;;;10.71;77.11;100784.81;5011674;28;20026;-91
2021/03/15 04:55:42;;;;;;;11.98;2.33;;;;;;;11.03;75.59;100798.53;5011704;28;20030;-90
2021/03/15 04:58:09;;;;;;;11.15;1.92;;;;;;;10.67;76.33;100791.19;4993908;28;20026;-90
2021/03/15 05:00:37;;;;;;;7.95;1.80;;;;;;;10.66;75.78;100790.38;4994047;28;20120;-90
2021/03/15 05:03:06;;;;;;;4.65;1.60;;;;;;;10.82;75.26;100789.38;4993901;28;20029;-88
2021/03/15 05:05:33;;;;;;;6.13;1.70;;;;;;;10.80;74.52;100781.63;4994041;28;20072;-90
2021/03/15 05:08:01;;;;;;;5.63;1.95;;;;;;;10.77;74.65;100788.84;4994051;28;20018;-90
2021/03/15 05:10:27;;;;;;;7.55;2.42;;;;;;;10.45;75.75;100802.19;4994106;28;20601;-87
2021/03/15 05:12:53;;;;;;;6.28;2.38;;;;;;;10.68;75.03;100799.00;5011476;28;20034;-89
2021/03/15 05:15:19;;;;;;;9.38;2.00;;;;;;;10.55;76.22;100803.31;4994018;28;20037;-88
2021/03/15 05:17:44;;;;;;;12.93;2.45;;;;;;;10.49;75.78;100803.69;5013024;28;20030;-88
2021/03/15 05:20:14;;;;;;;9.07;2.00;;;;;;;10.66;75.21;100805.25;4995244;28;20026;-87
2021/03/15 05:22:42;;;;;;;8.77;2.38;;;;;;;9.92;78.19;100801.81;4997329;28;20018;-87
2021/03/15 05:25:10;;;;;;;14.52;2.13;;;;;;;10.56;75.42;100802.34;5013197;28;20026;-88
2021/03/15 05:27:36;;;;;;;8.75;1.90;;;;;;;10.27;76.58;100814.63;5011693;28;20033;-88
2021/03/15 05:30:07;;;;;;;13.00;2.75;;;;;;;10.35;76.29;100812.41;5011514;28;20022;-88
2021/03/15 05:32:36;;;;;;;5.83;1.90;;;;;;;10.07;78.20;100821.91;4993863;28;20022;-88
2021/03/15 05:35:04;;;;;;;19.52;2.60;;;;;;;10.45;75.67;100826.66;5011442;28;20271;-88
2021/03/15 05:37:29;;;;;;;11.35;2.97;;;;;;;10.46;75.52;100835.38;5011629;28;20075;-88
2021/03/15 05:39:55;;;;;;;9.98;2.25;;;;;;;10.26;76.22;100831.28;5011286;28;20041;-88
2021/03/15 05:42:38;;;;;;;12.20;2.80;;;;;;;10.10;76.96;100840.06;5011392;28;20105;-87
2021/03/15 05:45:28;;;;;;;8.38;1.83;;;;;;;10.63;74.88;100837.81;5011135;28;20120;-88
2021/03/15 05:48:08;;;;;;;10.90;2.53;;;;;;;10.81;73.96;100841.09;5011181;28;20028;-88
2021/03/15 05:51:10;;;;;;;10.60;2.45;;;;;;;10.64;74.46;100842.13;5011273;28;20160;-88
2021/03/15 05:53:57;;;;;;;12.30;2.53;;;;;;;10.76;74.39;100847.56;5014666;28;20188;-88
2021/03/15 05:56:22;;;;;;;13.85;2.88;;;;;;;10.63;74.48;100853.56;5014676;28;20030;-88
2021/03/15 05:59:25;;;;;;;13.23;3.17;;;;;;;10.76;73.80;100855.44;4997056;28;20369;-88
2021/03/15 06:02:28;;;;;;;10.00;2.95;;;;;;;10.84;73.84;100856.66;5014743;28;20029;-88
2021/03/15 06:05:18;;;;;;;10.43;3.00;;;;;;;10.63;74.27;100864.06;5014456;28;20032;-88
2021/03/15 06:07:51;;;;;;;11.32;3.17;;;;;;;10.80;73.20;100862.19;5014417;28;20033;-88
2021/03/15 06:10:28;;;;;;;10.70;2.92;;;;;;;10.32;75.51;100855.41;5014353;28;20058;-87
2021/03/15 06:13:01;;;;;;;9.10;2.90;;;;;;;10.77;73.86;100862.38;4996793;28;20116;-87
2021/03/15 06:15:36;;;;;;;7.97;2.50;;;;;;;10.86;74.04;100860.03;5014849;28;20113;-90
2021/03/15 06:18:05;;;;;;;9.52;3.03;;;;;;;10.86;73.63;100870.56;5014749;28;20053;-88
2021/03/15 06:20:32;;;;;;;14.27;3.22;;;;;;;10.94;73.25;100866.59;5014242;28;20053;-88
2021/03/15 06:23:02;;;;;;;11.98;2.60;;;;;;;11.03;73.14;100864.22;5014233;28;20096;-89
2021/03/15 06:25:29;;;;;;;12.35;2.63;;;;;;;11.07;73.13;100878.88;4996479;28;20426;-87
2021/03/15 06:27:55;;;;;;;12.63;2.70;;;;;;;10.85;74.31;100875.88;5012152;28;20045;-88
2021/03/15 06:30:22;;;;;;;12.50;3.72;;;;;;;10.74;74.63;100883.56;4996220;28;20036;-89
2021/03/15 06:32:53;;;;;;;11.38;2.80;;;;;;;10.77;75.16;100878.16;4996264;28;20026;-88
2021/03/15 06:35:20;;;;;;;9.90;2.70;;;;;;;10.89;74.73;100880.00;4996333;28;20030;-89
2021/03/15 06:37:47;;;;;;;11.95;2.58;;;;;;;10.84;74.33;100876.81;4995859;28;20610;-89
2021/03/15 06:40:13;;;;;;;12.27;2.95;;;;;;;10.47;76.41;100882.53;5013818;28;20452;-89
2021/03/15 06:42:40;;;;;;;14.07;3.10;;;;;;;10.37;77.43;100875.28;5013976;28;20022;-89
2021/03/15 06:45:11;;;;;;;15.55;3.58;;;;;;;10.57;76.65;100880.19;5013461;28;20033;-89
2021/03/15 06:47:37;;;;;;;11.73;2.85;;;;;;;10.57;75.80;100889.88;5028937;28;20369;-89
2021/03/15 06:50:02;;;;;;;18.40;3.45;;;;;;;10.93;74.34;100902.53;5012275;28;20033;-89
2021/03/15 06:52:28;;;;;;;14.05;2.90;;;;;;;11.20;72.52;100918.38;5013477;28;20033;-90
2021/03/15 06:55:00;;;;;;;15.32;3.20;;;;;;;11.25;71.60;100913.66;5011954;28;20030;-89
2021/03/15 06:57:25;;;;;;;;;;;;;;;11.51;71.40;100919.06;5012558;28;20022;-89
2021/03/15 06:59:55;;;;;;;13.13;3.13;;;;;;;11.26;71.69;100925.88;5011321;28;19920;-90
2021/03/15 07:02:23;;;;;;;10.73;2.70;;;;;;;11.31;71.22;100928.22;5013062;28;20029;-89
2021/03/15 07:04:49;;;;;;;14.35;2.97;;;;;;;11.19;72.00;100942.97;4995101;28;20066;-90
2021/03/15 07:07:51;;;;;;;16.85;3.85;;;;;;;11.64;69.81;100951.53;5013216;28;20025;-90
2021/03/15 07:10:18;;;;;;;15.02;3.17;;;;;;;11.41;70.61;100955.59;4999503;28;20038;-90
2021/03/15 07:12:44;;;;;;;16.65;2.95;;;;;;;11.69;69.25;100953.88;5013096;28;20025;-90
2021/03/15 07:15:10;;;;;;;16.08;3.10;;;;;;;11.47;70.40;100964.91;4995344;28;20510;-90
2021/03/15 07:17:36;;;;;;;15.20;3.15;;;;;;;11.74;69.03;100975.47;5013260;28;20030;-90
2021/03/15 07:20:06;;;;;;;15.25;3.30;;;;;;;11.64;69.75;100980.47;4995383;28;20033;-93
2021/03/15 07:22:32;;;;;;;15.85;3.10;;;;;;;11.96;68.79;100971.50;4992296;28;20081;-91
2021/03/15 07:25:05;;;;;;;13.77;3.55;;;;;;;11.98;68.83;100986.22;4993427;28;20027;-91
2021/03/15 07:27:31;;;;;;;13.05;3.60;;;;;;;11.90;68.75;100994.63;4995533;28;20373;-91
2021/03/15 07:29:57;;;;;;;10.68;2.95;;;;;;;12.19;67.89;100999.81;5012371;28;20026;-91
2021/03/15 07:32:39;;;;;;;7.95;2.58;;;;;;;12.38;67.72;101003.84;5036484;28;20473;-91
2021/03/15 07:35:34;;;;;;;12.82;3.20;;;;;;;12.45;67.63;101013.03;5012715;28;20036;-91
2021/03/15 07:38:00;;;;;;;19.88;3.88;;;;;;;12.35;67.52;101014.59;5016031;28;20061;-92
2021/03/15 07:40:32;;;;;;;11.25;2.78;;;;;;;12.47;67.55;101003.25;4994850;28;20069;-91
2021/03/15 07:43:01;;;;;;;14.18;3.33;;;;;;;12.64;66.86;101013.50;4994819;28;20383;-91
2021/03/15 07:45:32;;;;;;;11.80;2.65;;;;;;;12.74;66.46;101020.78;4996113;28;20041;-92
2021/03/15 07:48:17;;;;;;;12.45;2.75;;;;;;;12.59;66.34;101018.22;5016499;28;20057;-92
2021/03/15 07:50:54;;;;;;;15.82;3.70;;;;;;;12.69;65.86;101029.84;5021242;28;20061;-92
2021/03/15 07:53:43;;;;;;;17.13;3.00;;;;;;;12.55;67.21;101014.13;4991916;28;20026;-92
2021/03/15 07:56:18;;;;;;;14.15;3.17;;;;;;;12.89;65.64;101028.53;4980076;28;20037;-92
2021/03/15 07:58:44;;;;;;;9.55;3.03;;;;;;;12.76;66.27;101035.56;5012823;28;20022;-91
2021/03/15 08:01:10;;;;;;;12.68;3.10;;;;;;;12.74;65.67;101036.59;5011768;28;20043;-92
2021/03/15 08:03:38;;;;;;;11.63;2.58;;;;;;;12.96;65.26;101042.13;5023888;28;20029;-93
2021/03/15 08:06:04;;;;;;;13.50;3.55;;;;;;;12.78;65.15;101038.94;4994918;28;20124;-93
2021/03/15 08:08:29;;;;;;;12.25;3.00;;;;;;;12.96;64.54;101047.38;4979198;28;20044;-93
2021/03/15 08:10:57;;;;;;;18.60;3.67;;;;;;;12.81;65.28;101051.06;4993988;28;20034;-92
2021/03/15 08:13:25;;;;;;;19.38;3.95;;;;;;;13.11;64.00;101063.94;5011693;28;20055;-90
2021/03/15 08:15:53;;;;;;;15.73;3.85;;;;;;;12.68;65.21;101056.31;5012602;28;20433;-93
2021/03/15 08:18:27;;;;;;;15.70;4.43;;;;;;;13.39;64.10;101076.13;5011926;28;20387;-94
2021/03/15 08:21:01;;;;;;;15.55;3.53;;;;;;;13.65;62.87;101065.56;4991523;28;20109;-94
2021/03/15 08:23:30;;;;;;;26.25;4.95;;;;;;;13.46;63.19;101064.19;4996892;28;20433;-94
2021/03/15 08:26:05;;;;;;;18.17;3.78;;;;;;;13.61;62.30;101077.28;4993807;28;20480;-91
2021/03/15 08:28:35;;;;;;;18.00;3.97;;;;;;;13.42;61.64;101075.06;5005898;28;20022;-89
2021/03/15 08:31:26;;;;;;;20.83;4.47;;;;;;;13.59;61.84;101077.38;5010995;28;20487;-90
2021/03/15 08:33:52;;;;;;;19.55;3.67;;;;;;;14.19;58.79;101074.91;4997975;28;20038;-91
2021/03/15 08:36:18;;;;;;;18.55;3.80;;;;;;;15.18;56.94;101084.31;4994603;28;20054;-91
2021/03/15 08:38:44;;;;;;;15.60;3.80;;;;;;;15.26;57.36;101077.50;4988611;28;20112;-91
2021/03/15 08:41:11;;;;;;;12.82;3.88;;;;;;;14.80;57.81;101088.06;5005494;28;20026;-91
2021/03/15 08:43:45;;;;;;;15.30;3.53;;;;;;;14.73;57.18;101090.34;4997143;28;20030;-91
2021/03/15 08:46:13;;;;;;;13.80;4.22;;;;;;;15.50;55.81;101092.44;4993921;28;20057;-91
2021/03/15 08:48:39;;;;;;;18.52;4.00;;;;;;;15.55;55.70;101097.38;5000168;28;20033;-96
2021/03/15 08:59:00;;;;;;;20.65;4.40;;;;;;;17.91;47.36;101081.44;5198437;23;20062;-96
2021/03/15 09:04:04;;;;;;;14.45;3.45;;;;;;;16.45;50.35;101102.59;5862151;23;21161;-96
2021/03/15 09:09:24;;;;;;;21.30;4.97;;;;;;;16.30;50.83;101122.38;5636325;23;20050;-96
2021/03/15 09:11:51;;;;;;;20.50;4.55;;;;;;;17.57;48.54;101095.00;4995157;28;20035;-96
2021/03/15 09:14:26;;;;;;;14.30;3.97;;;;;;;18.41;45.70;101115.97;5013176;28;20062;-94
2021/03/15 09:17:02;;;;;;;18.17;4.13;;;;;;;18.86;44.81;101115.47;4996140;28;20031;-95
2021/03/15 09:19:47;;;;;;;16.40;4.40;;;;;;;19.21;44.77;101125.53;4998202;28;20090;-95
2021/03/15 09:22:19;;;;;;;15.10;4.03;;;;;;;19.79;42.34;101107.72;5000342;23;20043;-96
2021/03/15 09:27:23;;;;;;;12.98;3.70;;;;;;;20.08;41.46;101126.19;5303931;23;20060;-96
2021/03/15 09:30:22;;;;;;;14.55;3.70;;;;;;;20.44;40.68;101106.75;4993451;28;20034;-96
2021/03/15 09:32:50;;;;;;;11.50;3.17;;;;;;;21.47;38.16;101115.16;4975446;28;20474;-95
2021/03/15 09:35:20;;;;;;;13.85;3.72;;;;;;;21.26;38.08;101124.31;4990341;28;20026;-96
2021/03/15 09:38:02;;;;;;;15.68;4.45;;;;;;;20.70;38.32;101096.22;4986282;28;20031;-95
2021/03/15 09:40:34;;;;;;;14.60;4.13;;;;;;;21.23;36.94;101097.94;4966849;29;20482;-96
2021/03/15 09:43:00;;;;;;;23.73;4.53;;;;;;;20.63;38.50;101114.63;4980552;28;20023;-96
2021/03/15 09:45:30;;;;;;;21.33;4.45;;;;;;;20.14;39.72;101133.63;4982947;28;20042;-95
2021/03/15 09:47:56;;;;;;;17.45;3.60;;;;;;;19.26;41.77;101117.09;4988363;28;20364;-96
2021/03/15 10:00:38;;;;;;;14.80;3.70;;;;;;;19.00;42.61;101132.84;5331251;23;20033;-95
2021/03/15 10:03:05;;;;;;;18.70;4.03;;;;;;;18.69;44.55;101154.22;5006180;23;20058;-95
2021/03/15 10:05:31;;;;;;;15.95;4.40;;;;;;;16.24;48.74;101131.66;4979257;28;20094;-96
2021/03/15 10:07:56;;;;;;;15.00;4.03;;;;;;;16.94;49.07;101141.00;4986741;28;20027;-94
2021/03/15 10:10:24;;;;;;;18.35;5.03;;;;;;;16.68;48.83;101134.31;4981247;28;20019;-94
2021/03/15 10:13:00;;;;;;;25.25;5.35;;;;;;;15.89;50.87;101159.13;4964208;28;20034;-94
2021/03/15 10:15:25;;;;;;;23.65;5.05;;;;;;;16.17;50.99;101156.94;4976992;28;20037;-94
2021/03/15 10:17:50;;;;;;;29.63;6.63;;;;;;;16.15;51.99;101170.34;4973835;28;20402;-96
2021/03/15 10:20:28;;;;;;;19.50;5.60;;;;;;;16.32;50.63;101155.72;4965443;28;20058;-96
2021/03/15 10:22:54;;;;;;;11.95;4.07;;;;;;;15.64;53.16;101160.19;4978534;28;20023;-96
2021/03/15 10:25:20;;;;;;;16.45;4.80;;;;;;;16.40;51.30;101165.72;4974628;28;20046;-96
2021/03/15 10:27:57;;;;;;;23.80;4.40;;;;;;;16.28;49.61;101153.47;4962381;28;20019;-96
2021/03/15 10:30:28;;;;;;;19.67;4.68;;;;;;;16.43;50.67;101162.84;4967598;28;20062;-95
2021/03/15 10:32:55;;;;;;;19.17;4.40;;;;;;;16.69;50.85;101157.22;4973035;28;20133;-94
2021/03/15 10:35:21;;;;;;;16.00;4.10;;;;;;;17.25;49.11;101172.91;4958412;29;20023;-96
2021/03/15 10:37:50;;;;;;;19.05;4.45;;;;;;;16.72;49.64;101156.97;4975366;28;20042;-96
2021/03/15 10:40:18;;;;;;;19.23;4.45;;;;;;;16.45;49.79;101150.31;4977122;28;20106;-96
2021/03/15 10:42:43;;;;;;;19.35;3.88;;;;;;;16.90;49.57;101159.94;4976463;28;20035;-95
2021/03/15 10:45:10;;;;;;;21.75;5.40;;;;;;;16.02;50.72;101148.44;4976200;28;20057;-95
2021/03/15 10:47:37;;;;;;;17.77;4.50;;;;;;;16.51;50.51;101149.81;4976907;28;20031;-96
2021/03/15 10:50:23;;;;;;;16.45;3.63;;;;;;;15.96;52.72;101167.47;4972798;28;20027;-96
2021/03/15 10:52:49;;;;;;;29.88;5.07;;;;;;;16.02;52.31;101164.31;4976151;28;20119;-96
2021/03/15 10:55:20;;;;;;;19.98;4.88;;;;;;;16.44;50.89;101168.00;4959805;28;20075;-94
2021/03/15 10:58:10;;;;;;;16.52;4.30;;;;;;;15.73;53.68;101175.38;4964202;28;20019;-95
2021/03/15 11:00:47;;;;;;;16.45;4.13;;;;;;;16.77;51.32;101170.69;4977998;28;20066;-96
2021/03/15 11:03:20;;;;;;;14.52;3.85;;;;;;;17.22;51.75;101183.81;4981173;28;20037;-95
2021/03/15 11:05:46;;;;;;;19.77;4.25;;;;;;;19.07;46.50;101173.84;4976713;28;20580;-96
2021/03/15 11:08:21;;;;;;;17.80;4.25;;;;;;;20.33;43.48;101172.66;4961760;28;20038;-94
2021/03/15 11:10:47;;;;;;;16.60;4.00;;;;;;;21.31;40.93;101175.44;4985362;28;20019;-92
2021/03/15 11:13:19;;;;;;;16.85;3.97;;;;;;;19.17;42.89;101171.19;4998167;28;20075;-92
2021/03/15 11:15:45;;;;;;;15.55;3.92;;;;;;;18.93;43.79;101183.09;4995503;28;20078;-92
2021/03/15 11:18:21;;;;;;;19.23;4.07;;;;;;;18.05;46.92;101179.41;4973565;28;20022;-92
2021/03/15 11:20:51;;;;;;;21.88;3.92;;;;;;;17.62;47.39;101183.09;4981845;28;20074;-91
2021/03/15 11:23:37;;;;;;;18.20;4.82;;;;;;;19.05;45.18;101167.84;4981411;28;20058;-91
2021/03/15 11:26:08;;;;;;;14.18;3.50;;;;;;;20.12;42.96;101180.94;4982521;28;20023;-94
2021/03/15 11:28:37;;;;;;;14.75;4.43;;;;;;;18.52;44.27;101178.81;4968643;28;20398;-94
2021/03/15 11:31:03;;;;;;;15.57;4.10;;;;;;;19.08;44.95;101172.06;4967760;28;20038;-93
2021/03/15 11:33:29;;;;;;;14.77;4.07;;;;;;;18.41;44.43;101171.81;4974699;28;20034;-93
2021/03/15 11:35:57;;;;;;;16.77;3.45;;;;;;;19.06;44.28;101193.47;4982176;28;20034;-94
2021/03/15 11:38:24;;;;;;;16.80;3.22;;;;;;;18.26;43.73;101183.81;4956884;28;20474;-92
2021/03/15 11:40:51;;;;;;;18.98;3.60;;;;;;;19.55;42.38;101183.63;4967177;28;20062;-93
2021/03/15 11:43:16;;;;;;;12.57;3.50;;;;;;;19.07;40.93;101181.84;4969333;28;20477;-89
2021/03/15 11:45:42;;;;;;;11.70;2.83;;;;;;;18.90;42.33;101172.75;4979633;28;20126;-91
2021/03/15 11:48:08;;;;;;;13.02;2.75;;;;;;;21.06;40.04;101176.25;4982674;28;20038;-91
2021/03/15 11:50:34;;;;;;;12.13;2.83;;;;;;;20.47;39.11;101181.97;4982464;28;20022;-92
2021/03/15 11:53:01;;;;;;;9.93;3.15;;;;;;;18.91;42.22;101177.06;4975760;28;20036;-91
2021/03/15 11:55:27;;;;;;;14.50;2.83;;;;;;;19.65;41.30;101180.94;4976088;28;20085;-89
2021/03/15 11:57:52;;;;;;;12.40;2.83;;;;;;;20.11;40.82;101192.56;4970091;28;20035;-89
2021/03/15 12:00:20;;;;;;;11.65;2.45;;;;;;;20.02;37.69;101182.78;4966847;28;20026;-90